Panfeliss — YMA4305 — position and weather

sailwx.info

Track history (hours):
 
Tides and Currents Weather Stations Pressure Air Temp Water Temp Dewpoint Dewpoint Depression Visibility Wind Speed Wind Dir Waves Ship Positions

Panfeliss

Last reported at 2017-Aug-25 12:19 UTC. Time now 2017-Sep-22 10:13 UTC.
Position N 36°59' E 025°20'.
Warning: this ship's position is 27 days out of date.

Length 32 m.

Type: Pleasure craft. MMSI: 271020200.

Date/timePositionNaut miles runAvg speedWind from/ knotsBaromVisibWave heightAir tempDewpointWater temp
2017-Aug-25 12:19N 36°59' E 025°20'619.4
2017-Aug-25 12:01N 37°05' E 025°18'917.8
2017-Aug-25 11:30N 37°14' E 025°19'918.7
2017-Aug-25 11:00N 37°23' E 025°20'1 2.7
2017-Aug-25 10:30N 37°24' E 025°21'0 0.1
2017-Aug-25 10:00N 37°24' E 025°21'0 0.0
2017-Aug-25 09:30N 37°24' E 025°21'0 0.1
2017-Aug-25 09:00N 37°24' E 025°20'0 0.0
2017-Aug-25 08:27N 37°24' E 025°21'0 0.0
2017-Aug-25 08:00N 37°24' E 025°21'0 0.0
2017-Aug-25 07:30N 37°24' E 025°21'0 0.0
2017-Aug-25 07:00N 37°24' E 025°21'0 0.0
2017-Aug-25 06:30N 37°24' E 025°21'0 0.0
2017-Aug-25 06:00N 37°24' E 025°21'0 0.0
2017-Aug-25 05:24N 37°24' E 025°21'0 0.0
2017-Aug-25 04:57N 37°24' E 025°21'0 0.0
2017-Aug-25 04:30N 37°24' E 025°21'0 0.1
2017-Aug-25 04:00N 37°24' E 025°21'0 0.0
2017-Aug-25 03:27N 37°24' E 025°21'0 0.0
2017-Aug-25 03:00N 37°24' E 025°21'0 0.0
2017-Aug-25 02:30N 37°24' E 025°21'0 0.0
2017-Aug-25 02:00N 37°24' E 025°21'0 0.0
2017-Aug-25 01:24N 37°24' E 025°21'0 0.0
2017-Aug-25 01:00N 37°24' E 025°21'0 0.0
2017-Aug-25 00:30N 37°24' E 025°21'0 0.0
2017-Aug-25 00:00N 37°24' E 025°21'0 0.0
2017-Aug-24 23:30N 37°24' E 025°21'0 0.0
2017-Aug-24 23:00N 37°24' E 025°21'0 0.0
2017-Aug-24 22:30N 37°24' E 025°21'0 0.0
2017-Aug-24 21:57N 37°24' E 025°21'0 0.0
2017-Aug-24 21:24N 37°24' E 025°21'0 0.0
2017-Aug-24 21:00N 37°24' E 025°21'0 0.0
2017-Aug-24 20:30N 37°24' E 025°21'0 0.0
2017-Aug-24 20:00N 37°24' E 025°21'0 0.0
2017-Aug-24 19:30N 37°24' E 025°21'0 0.0
2017-Aug-24 19:00N 37°24' E 025°21'0 0.0
2017-Aug-24 18:30N 37°24' E 025°21'0 0.0
2017-Aug-24 18:00N 37°24' E 025°21'0 0.0
2017-Aug-24 16:24N 37°24' E 025°21'0 0.0
2017-Aug-24 16:00N 37°24' E 025°21'0 0.0
2017-Aug-24 15:18N 37°24' E 025°21'0 0.1
2017-Aug-24 15:00N 37°24' E 025°21'0 0.5
2017-Aug-24 14:30N 37°25' E 025°20'0 0.0
2017-Aug-24 13:58N 37°25' E 025°20'0 0.1
2017-Aug-24 13:29N 37°25' E 025°20'0 0.1
2017-Aug-24 12:59N 37°25' E 025°20'0 0.0
2017-Aug-24 12:23N 37°25' E 025°20'0 0.1
2017-Aug-24 11:58N 37°25' E 025°20'0 0.4
2017-Aug-24 11:09N 37°25' E 025°20'3 0.1
2017-Aug-23 11:52N 37°27' E 025°20'0 0.0
2017-Aug-23 02:52N 37°27' E 025°20'0 0.0
2017-Aug-22 16:46N 37°27' E 025°20'0 0.0
2017-Aug-22 10:46N 37°27' E 025°20'0 0.0
2017-Aug-22 04:43N 37°27' E 025°20'0 0.0
2017-Aug-22 04:25N 37°27' E 025°20'0 0.0
2017-Aug-22 00:52N 37°27' E 025°20'0 0.0
2017-Aug-22 00:25N 37°27' E 025°20'0 0.0
2017-Aug-21 20:55N 37°27' E 025°20'0 0.0
2017-Aug-21 17:19N 37°27' E 025°20'0 0.0
2017-Aug-21 10:20N 37°27' E 025°20'0 0.0
2017-Aug-21 09:50N 37°27' E 025°20'1 2.1
2017-Aug-21 09:30N 37°26' E 025°19'0 0.3
2017-Aug-21 08:53N 37°26' E 025°19'0 0.2
2017-Aug-21 08:29N 37°26' E 025°19'1 1.1
2017-Aug-21 08:00N 37°27' E 025°19'1 1.9
2017-Aug-21 07:29N 37°27' E 025°18'3 6.1
2017-Aug-21 07:00N 37°24' E 025°19'0 1.0
2017-Aug-21 06:29N 37°25' E 025°19'0 0.0
2017-Aug-21 05:47N 37°25' E 025°19'0 0.1
2017-Aug-21 05:29N 37°25' E 025°19'0 0.1
2017-Aug-21 04:59N 37°25' E 025°19'0 0.0
2017-Aug-21 04:26N 37°25' E 025°19'0 0.0
2017-Aug-21 03:59N 37°25' E 025°19'0 0.0
2017-Aug-21 03:29N 37°25' E 025°19'0 0.0
2017-Aug-21 02:59N 37°25' E 025°19'0 0.0
2017-Aug-21 02:29N 37°25' E 025°19'0 0.0
2017-Aug-21 01:59N 37°25' E 025°19'0 0.0
2017-Aug-21 01:29N 37°25' E 025°19'0 0.1
2017-Aug-21 00:59N 37°25' E 025°19'0 0.0
2017-Aug-21 00:29N 37°25' E 025°19'0 0.0
2017-Aug-20 23:59N 37°25' E 025°19'0 0.0
2017-Aug-20 23:29N 37°25' E 025°19'0 0.0
2017-Aug-20 22:59N 37°25' E 025°19'0 0.0
2017-Aug-20 22:20N 37°25' E 025°19'0 0.0
2017-Aug-20 21:59N 37°25' E 025°19'0 0.0
2017-Aug-20 21:29N 37°25' E 025°19'0 0.0
2017-Aug-20 21:00N 37°25' E 025°19'611.3
2017-Aug-20 20:30N 37°23' E 025°26'1518.8
2017-Aug-20 19:41N 37°19' E 025°45'318.5
2017-Aug-20 19:30N 37°18' E 025°49'  
Track history (hours):
 
Tides and Currents Weather Stations Pressure Air Temp Water Temp Dewpoint Dewpoint Depression Visibility Wind Speed Wind Dir Waves Ship Positions

Panfeliss

Last reported at 2017-Aug-25 12:19 UTC. Time now 2017-Sep-22 10:13 UTC.
Position N 36°59' E 025°20'.
Warning: this ship's position is 27 days out of date.

Length 32 m.

Type: Pleasure craft. MMSI: 271020200.

Date/timePositionNaut miles runAvg speedWind from/ knotsBaromVisibWave heightAir tempDewpointWater temp
2017-Aug-25 12:19N 36°59' E 025°20'619.4
2017-Aug-25 12:01N 37°05' E 025°18'917.8
2017-Aug-25 11:30N 37°14' E 025°19'918.7
2017-Aug-25 11:00N 37°23' E 025°20'1 2.7
2017-Aug-25 10:30N 37°24' E 025°21'0 0.1
2017-Aug-25 10:00N 37°24' E 025°21'0 0.0
2017-Aug-25 09:30N 37°24' E 025°21'0 0.1
2017-Aug-25 09:00N 37°24' E 025°20'0 0.0
2017-Aug-25 08:27N 37°24' E 025°21'0 0.0
2017-Aug-25 08:00N 37°24' E 025°21'0 0.0
2017-Aug-25 07:30N 37°24' E 025°21'0 0.0
2017-Aug-25 07:00N 37°24' E 025°21'0 0.0
2017-Aug-25 06:30N 37°24' E 025°21'0 0.0
2017-Aug-25 06:00N 37°24' E 025°21'0 0.0
2017-Aug-25 05:24N 37°24' E 025°21'0 0.0
2017-Aug-25 04:57N 37°24' E 025°21'0 0.0
2017-Aug-25 04:30N 37°24' E 025°21'0 0.1
2017-Aug-25 04:00N 37°24' E 025°21'0 0.0
2017-Aug-25 03:27N 37°24' E 025°21'0 0.0
2017-Aug-25 03:00N 37°24' E 025°21'0 0.0
2017-Aug-25 02:30N 37°24' E 025°21'0 0.0
2017-Aug-25 02:00N 37°24' E 025°21'0 0.0
2017-Aug-25 01:24N 37°24' E 025°21'0 0.0
2017-Aug-25 01:00N 37°24' E 025°21'0 0.0
2017-Aug-25 00:30N 37°24' E 025°21'0 0.0
2017-Aug-25 00:00N 37°24' E 025°21'0 0.0
2017-Aug-24 23:30N 37°24' E 025°21'0 0.0
2017-Aug-24 23:00N 37°24' E 025°21'0 0.0
2017-Aug-24 22:30N 37°24' E 025°21'0 0.0
2017-Aug-24 21:57N 37°24' E 025°21'0 0.0
2017-Aug-24 21:24N 37°24' E 025°21'0 0.0
2017-Aug-24 21:00N 37°24' E 025°21'0 0.0
2017-Aug-24 20:30N 37°24' E 025°21'0 0.0
2017-Aug-24 20:00N 37°24' E 025°21'0 0.0
2017-Aug-24 19:30N 37°24' E 025°21'0 0.0
2017-Aug-24 19:00N 37°24' E 025°21'0 0.0
2017-Aug-24 18:30N 37°24' E 025°21'0 0.0
2017-Aug-24 18:00N 37°24' E 025°21'0 0.0
2017-Aug-24 16:24N 37°24' E 025°21'0 0.0
2017-Aug-24 16:00N 37°24' E 025°21'0 0.0
2017-Aug-24 15:18N 37°24' E 025°21'0 0.1
2017-Aug-24 15:00N 37°24' E 025°21'0 0.5
2017-Aug-24 14:30N 37°25' E 025°20'0 0.0
2017-Aug-24 13:58N 37°25' E 025°20'0 0.1
2017-Aug-24 13:29N 37°25' E 025°20'0 0.1
2017-Aug-24 12:59N 37°25' E 025°20'0 0.0
2017-Aug-24 12:23N 37°25' E 025°20'0 0.1
2017-Aug-24 11:58N 37°25' E 025°20'0 0.4
2017-Aug-24 11:09N 37°25' E 025°20'3 0.1
2017-Aug-23 11:52N 37°27' E 025°20'0 0.0
2017-Aug-23 02:52N 37°27' E 025°20'0 0.0
2017-Aug-22 16:46N 37°27' E 025°20'0 0.0
2017-Aug-22 10:46N 37°27' E 025°20'0 0.0
2017-Aug-22 04:43N 37°27' E 025°20'0 0.0
2017-Aug-22 04:25N 37°27' E 025°20'0 0.0
2017-Aug-22 00:52N 37°27' E 025°20'0 0.0
2017-Aug-22 00:25N 37°27' E 025°20'0 0.0
2017-Aug-21 20:55N 37°27' E 025°20'0 0.0
2017-Aug-21 17:19N 37°27' E 025°20'0 0.0
2017-Aug-21 10:20N 37°27' E 025°20'0 0.0
2017-Aug-21 09:50N 37°27' E 025°20'1 2.1
2017-Aug-21 09:30N 37°26' E 025°19'0 0.3
2017-Aug-21 08:53N 37°26' E 025°19'0 0.2
2017-Aug-21 08:29N 37°26' E 025°19'1 1.1
2017-Aug-21 08:00N 37°27' E 025°19'1 1.9
2017-Aug-21 07:29N 37°27' E 025°18'3 6.1
2017-Aug-21 07:00N 37°24' E 025°19'0 1.0
2017-Aug-21 06:29N 37°25' E 025°19'0 0.0
2017-Aug-21 05:47N 37°25' E 025°19'0 0.1
2017-Aug-21 05:29N 37°25' E 025°19'0 0.1
2017-Aug-21 04:59N 37°25' E 025°19'0 0.0
2017-Aug-21 04:26N 37°25' E 025°19'0 0.0
2017-Aug-21 03:59N 37°25' E 025°19'0 0.0
2017-Aug-21 03:29N 37°25' E 025°19'0 0.0
2017-Aug-21 02:59N 37°25' E 025°19'0 0.0
2017-Aug-21 02:29N 37°25' E 025°19'0 0.0
2017-Aug-21 01:59N 37°25' E 025°19'0 0.0
2017-Aug-21 01:29N 37°25' E 025°19'0 0.1
2017-Aug-21 00:59N 37°25' E 025°19'0 0.0
2017-Aug-21 00:29N 37°25' E 025°19'0 0.0
2017-Aug-20 23:59N 37°25' E 025°19'0 0.0
2017-Aug-20 23:29N 37°25' E 025°19'0 0.0
2017-Aug-20 22:59N 37°25' E 025°19'0 0.0
2017-Aug-20 22:20N 37°25' E 025°19'0 0.0
2017-Aug-20 21:59N 37°25' E 025°19'0 0.0
2017-Aug-20 21:29N 37°25' E 025°19'0 0.0
2017-Aug-20 21:00N 37°25' E 025°19'611.3
2017-Aug-20 20:30N 37°23' E 025°26'1518.8
2017-Aug-20 19:41N 37°19' E 025°45'318.5
2017-Aug-20 19:30N 37°18' E 025°49'  

Dump ship's entire track history